sensor_id;sensor_type;location;lat;lon;timestamp;P1;durP1;ratioP1;P2;durP2;ratioP2
44955;SDS011;30686;52.512;-1.188;2023-01-04T00:00:47;5.28;;;1.40;;
44955;SDS011;30686;52.512;-1.188;2023-01-04T00:03:16;4.20;;;1.20;;
44955;SDS011;30686;52.512;-1.188;2023-01-04T00:05:43;8.73;;;1.40;;
44955;SDS011;30686;52.512;-1.188;2023-01-04T00:08:09;2.30;;;1.13;;
44955;SDS011;30686;52.512;-1.188;2023-01-04T00:10:35;4.38;;;1.25;;
44955;SDS011;30686;52.512;-1.188;2023-01-04T00:13:02;6.97;;;1.70;;
44955;SDS011;30686;52.512;-1.188;2023-01-04T00:15:29;7.22;;;1.20;;
44955;SDS011;30686;52.512;-1.188;2023-01-04T00:17:57;5.90;;;2.30;;
44955;SDS011;30686;52.512;-1.188;2023-01-04T00:20:23;8.77;;;1.52;;
44955;SDS011;30686;52.512;-1.188;2023-01-04T00:22:50;2.95;;;1.13;;
44955;SDS011;30686;52.512;-1.188;2023-01-04T00:25:18;4.43;;;1.20;;
44955;SDS011;30686;52.512;-1.188;2023-01-04T00:27:44;6.97;;;1.40;;
44955;SDS011;30686;52.512;-1.188;2023-01-04T00:30:11;7.47;;;1.38;;
44955;SDS011;30686;52.512;-1.188;2023-01-04T00:32:37;3.92;;;1.17;;
44955;SDS011;30686;52.512;-1.188;2023-01-04T00:35:03;5.88;;;1.90;;
44955;SDS011;30686;52.512;-1.188;2023-01-04T00:37:29;6.75;;;1.40;;
44955;SDS011;30686;52.512;-1.188;2023-01-04T00:39:56;4.65;;;1.40;;
44955;SDS011;30686;52.512;-1.188;2023-01-04T00:42:22;3.28;;;1.13;;
44955;SDS011;30686;52.512;-1.188;2023-01-04T00:44:48;3.15;;;1.10;;
44955;SDS011;30686;52.512;-1.188;2023-01-04T00:47:14;2.53;;;1.13;;
44955;SDS011;30686;52.512;-1.188;2023-01-04T00:49:44;6.53;;;1.20;;
44955;SDS011;30686;52.512;-1.188;2023-01-04T00:52:10;3.42;;;1.27;;
44955;SDS011;30686;52.512;-1.188;2023-01-04T00:54:36;5.40;;;1.30;;
44955;SDS011;30686;52.512;-1.188;2023-01-04T00:57:02;6.18;;;1.73;;
44955;SDS011;30686;52.512;-1.188;2023-01-04T00:59:29;6.22;;;1.25;;
44955;SDS011;30686;52.512;-1.188;2023-01-04T01:01:56;3.72;;;1.65;;
44955;SDS011;30686;52.512;-1.188;2023-01-04T01:04:22;1.90;;;1.00;;
44955;SDS011;30686;52.512;-1.188;2023-01-04T01:06:49;5.88;;;1.67;;
44955;SDS011;30686;52.512;-1.188;2023-01-04T01:09:15;3.63;;;1.27;;
44955;SDS011;30686;52.512;-1.188;2023-01-04T01:11:42;3.35;;;1.05;;
44955;SDS011;30686;52.512;-1.188;2023-01-04T01:14:12;6.30;;;1.15;;
44955;SDS011;30686;52.512;-1.188;2023-01-04T01:16:43;8.85;;;1.50;;
44955;SDS011;30686;52.512;-1.188;2023-01-04T01:19:09;3.95;;;1.17;;
44955;SDS011;30686;52.512;-1.188;2023-01-04T01:21:35;1.55;;;0.85;;
44955;SDS011;30686;52.512;-1.188;2023-01-04T01:24:02;5.95;;;1.33;;
44955;SDS011;30686;52.512;-1.188;2023-01-04T01:26:30;2.42;;;0.90;;
44955;SDS011;30686;52.512;-1.188;2023-01-04T01:28:57;2.13;;;1.05;;
44955;SDS011;30686;52.512;-1.188;2023-01-04T01:31:24;2.05;;;1.15;;
44955;SDS011;30686;52.512;-1.188;2023-01-04T01:33:52;1.70;;;0.80;;
44955;SDS011;30686;52.512;-1.188;2023-01-04T01:36:22;0.70;;;0.70;;
44955;SDS011;30686;52.512;-1.188;2023-01-04T01:38:49;1.52;;;0.68;;
44955;SDS011;30686;52.512;-1.188;2023-01-04T01:41:23;4.75;;;1.15;;
44955;SDS011;30686;52.512;-1.188;2023-01-04T01:46:17;0.88;;;0.80;;
44955;SDS011;30686;52.512;-1.188;2023-01-04T01:48:44;1.52;;;0.73;;
44955;SDS011;30686;52.512;-1.188;2023-01-04T01:51:11;4.88;;;1.73;;
44955;SDS011;30686;52.512;-1.188;2023-01-04T01:53:40;4.10;;;1.02;;
44955;SDS011;30686;52.512;-1.188;2023-01-04T01:56:08;0.95;;;0.70;;
44955;SDS011;30686;52.512;-1.188;2023-01-04T01:58:41;3.22;;;1.60;;
44955;SDS011;30686;52.512;-1.188;2023-01-04T02:01:09;2.38;;;0.95;;
44955;SDS011;30686;52.512;-1.188;2023-01-04T02:03:37;2.10;;;0.73;;
44955;SDS011;30686;52.512;-1.188;2023-01-04T02:06:05;1.20;;;0.60;;
44955;SDS011;30686;52.512;-1.188;2023-01-04T02:08:33;2.08;;;0.80;;
44955;SDS011;30686;52.512;-1.188;2023-01-04T02:11:02;2.80;;;0.88;;
44955;SDS011;30686;52.512;-1.188;2023-01-04T02:13:29;0.70;;;0.60;;
44955;SDS011;30686;52.512;-1.188;2023-01-04T02:27:12;1.90;;;0.85;;
44955;SDS011;30686;52.512;-1.188;2023-01-04T02:29:56;1.35;;;0.68;;
44955;SDS011;30686;52.512;-1.188;2023-01-04T02:34:59;1.52;;;0.70;;
44955;SDS011;30686;52.512;-1.188;2023-01-04T02:45:29;0.60;;;0.60;;
44955;SDS011;30686;52.512;-1.188;2023-01-04T02:48:00;0.70;;;0.70;;
44955;SDS011;30686;52.512;-1.188;2023-01-04T02:50:55;0.40;;;0.40;;
44955;SDS011;30686;52.512;-1.188;2023-01-04T02:53:24;1.67;;;0.98;;
44955;SDS011;30686;52.512;-1.188;2023-01-04T03:11:10;0.52;;;0.52;;
44955;SDS011;30686;52.512;-1.188;2023-01-04T03:13:58;0.57;;;0.57;;
44955;SDS011;30686;52.512;-1.188;2023-01-04T03:16:25;0.38;;;0.38;;
44955;SDS011;30686;52.512;-1.188;2023-01-04T03:18:54;0.98;;;0.60;;
44955;SDS011;30686;52.512;-1.188;2023-01-04T03:21:22;1.17;;;0.60;;
44955;SDS011;30686;52.512;-1.188;2023-01-04T03:23:50;0.50;;;0.50;;
44955;SDS011;30686;52.512;-1.188;2023-01-04T03:26:38;1.20;;;0.60;;
44955;SDS011;30686;52.512;-1.188;2023-01-04T03:29:35;1.75;;;0.63;;
44955;SDS011;30686;52.512;-1.188;2023-01-04T03:32:26;1.88;;;0.40;;
44955;SDS011;30686;52.512;-1.188;2023-01-04T03:35:11;0.77;;;0.77;;
44955;SDS011;30686;52.512;-1.188;2023-01-04T03:37:58;0.60;;;0.60;;
44955;SDS011;30686;52.512;-1.188;2023-01-04T03:41:19;0.68;;;0.52;;
44955;SDS011;30686;52.512;-1.188;2023-01-04T03:44:41;1.00;;;0.80;;
44955;SDS011;30686;52.512;-1.188;2023-01-04T03:47:07;0.80;;;0.60;;
44955;SDS011;30686;52.512;-1.188;2023-01-04T03:49:55;0.60;;;0.60;;
44955;SDS011;30686;52.512;-1.188;2023-01-04T03:52:28;0.47;;;0.47;;
44955;SDS011;30686;52.512;-1.188;2023-01-04T03:54:56;0.65;;;0.65;;
44955;SDS011;30686;52.512;-1.188;2023-01-04T03:57:27;1.85;;;0.60;;
44955;SDS011;30686;52.512;-1.188;2023-01-04T03:59:56;0.57;;;0.57;;
44955;SDS011;30686;52.512;-1.188;2023-01-04T04:02:28;0.40;;;0.40;;
44955;SDS011;30686;52.512;-1.188;2023-01-04T04:04:54;0.50;;;0.50;;
44955;SDS011;30686;52.512;-1.188;2023-01-04T04:07:42;0.60;;;0.50;;
44955;SDS011;30686;52.512;-1.188;2023-01-04T04:12:53;0.45;;;0.43;;
44955;SDS011;30686;52.512;-1.188;2023-01-04T04:15:19;0.60;;;0.60;;
44955;SDS011;30686;52.512;-1.188;2023-01-04T04:17:45;0.65;;;0.65;;
44955;SDS011;30686;52.512;-1.188;2023-01-04T04:20:12;0.60;;;0.60;;
44955;SDS011;30686;52.512;-1.188;2023-01-04T04:22:38;0.50;;;0.50;;
44955;SDS011;30686;52.512;-1.188;2023-01-04T04:25:06;0.50;;;0.50;;
44955;SDS011;30686;52.512;-1.188;2023-01-04T04:27:32;0.60;;;0.60;;
44955;SDS011;30686;52.512;-1.188;2023-01-04T04:29:59;0.50;;;0.50;;
44955;SDS011;30686;52.512;-1.188;2023-01-04T04:32:27;0.80;;;0.60;;
44955;SDS011;30686;52.512;-1.188;2023-01-04T04:34:53;0.60;;;0.60;;
44955;SDS011;30686;52.512;-1.188;2023-01-04T04:37:19;0.50;;;0.50;;
44955;SDS011;30686;52.512;-1.188;2023-01-04T04:39:45;0.47;;;0.47;;
44955;SDS011;30686;52.512;-1.188;2023-01-04T04:42:11;0.32;;;0.32;;
44955;SDS011;30686;52.512;-1.188;2023-01-04T04:44:38;0.57;;;0.57;;
44955;SDS011;30686;52.512;-1.188;2023-01-04T04:47:04;0.50;;;0.50;;
44955;SDS011;30686;52.512;-1.188;2023-01-04T04:49:32;0.55;;;0.55;;
44955;SDS011;30686;52.512;-1.188;2023-01-04T04:51:59;0.40;;;0.40;;
44955;SDS011;30686;52.512;-1.188;2023-01-04T04:54:25;0.47;;;0.47;;
44955;SDS011;30686;52.512;-1.188;2023-01-04T04:56:51;4.38;;;0.93;;
44955;SDS011;30686;52.512;-1.188;2023-01-04T04:59:26;0.63;;;0.55;;
44955;SDS011;30686;52.512;-1.188;2023-01-04T05:01:52;1.35;;;0.95;;
44955;SDS011;30686;52.512;-1.188;2023-01-04T05:04:21;0.45;;;0.45;;
44955;SDS011;30686;52.512;-1.188;2023-01-04T05:06:48;0.52;;;0.52;;
44955;SDS011;30686;52.512;-1.188;2023-01-04T05:09:17;0.50;;;0.50;;
44955;SDS011;30686;52.512;-1.188;2023-01-04T05:11:46;0.50;;;0.50;;
44955;SDS011;30686;52.512;-1.188;2023-01-04T05:14:33;0.68;;;0.60;;
44955;SDS011;30686;52.512;-1.188;2023-01-04T05:17:01;0.40;;;0.40;;
44955;SDS011;30686;52.512;-1.188;2023-01-04T05:19:27;0.45;;;0.45;;
44955;SDS011;30686;52.512;-1.188;2023-01-04T05:21:58;0.50;;;0.50;;
44955;SDS011;30686;52.512;-1.188;2023-01-04T05:24:24;0.50;;;0.50;;
44955;SDS011;30686;52.512;-1.188;2023-01-04T05:26:50;0.52;;;0.52;;
44955;SDS011;30686;52.512;-1.188;2023-01-04T05:29:17;1.17;;;0.57;;
44955;SDS011;30686;52.512;-1.188;2023-01-04T05:32:04;2.38;;;0.65;;
44955;SDS011;30686;52.512;-1.188;2023-01-04T05:34:30;0.60;;;0.60;;
44955;SDS011;30686;52.512;-1.188;2023-01-04T05:36:56;4.03;;;1.05;;
44955;SDS011;30686;52.512;-1.188;2023-01-04T05:39:23;0.50;;;0.50;;
44955;SDS011;30686;52.512;-1.188;2023-01-04T05:41:49;2.20;;;0.80;;
44955;SDS011;30686;52.512;-1.188;2023-01-04T05:47:00;0.60;;;0.60;;
44955;SDS011;30686;52.512;-1.188;2023-01-04T05:49:28;0.65;;;0.60;;
44955;SDS011;30686;52.512;-1.188;2023-01-04T05:51:54;0.60;;;0.60;;
44955;SDS011;30686;52.512;-1.188;2023-01-04T05:54:25;2.13;;;0.40;;
44955;SDS011;30686;52.512;-1.188;2023-01-04T05:56:52;0.43;;;0.43;;
44955;SDS011;30686;52.512;-1.188;2023-01-04T05:59:38;1.65;;;0.68;;
44955;SDS011;30686;52.512;-1.188;2023-01-04T06:02:05;3.30;;;0.77;;
44955;SDS011;30686;52.512;-1.188;2023-01-04T06:04:31;3.80;;;0.68;;
44955;SDS011;30686;52.512;-1.188;2023-01-04T06:06:57;0.40;;;0.40;;
44955;SDS011;30686;52.512;-1.188;2023-01-04T06:09:23;0.98;;;0.60;;
44955;SDS011;30686;52.512;-1.188;2023-01-04T06:11:52;1.02;;;0.70;;
44955;SDS011;30686;52.512;-1.188;2023-01-04T06:14:18;0.50;;;0.50;;
44955;SDS011;30686;52.512;-1.188;2023-01-04T06:16:44;0.88;;;0.70;;
44955;SDS011;30686;52.512;-1.188;2023-01-04T06:19:12;3.35;;;0.90;;
44955;SDS011;30686;52.512;-1.188;2023-01-04T06:21:38;1.60;;;0.63;;
44955;SDS011;30686;52.512;-1.188;2023-01-04T06:24:04;0.98;;;0.55;;
44955;SDS011;30686;52.512;-1.188;2023-01-04T06:26:31;1.00;;;0.70;;
44955;SDS011;30686;52.512;-1.188;2023-01-04T06:29:02;1.13;;;0.70;;
44955;SDS011;30686;52.512;-1.188;2023-01-04T06:31:28;2.63;;;0.80;;
44955;SDS011;30686;52.512;-1.188;2023-01-04T06:33:55;3.70;;;0.70;;
44955;SDS011;30686;52.512;-1.188;2023-01-04T06:36:21;1.02;;;0.73;;
44955;SDS011;30686;52.512;-1.188;2023-01-04T06:38:47;0.57;;;0.57;;
44955;SDS011;30686;52.512;-1.188;2023-01-04T06:41:36;2.35;;;0.90;;
44955;SDS011;30686;52.512;-1.188;2023-01-04T06:44:16;1.65;;;0.70;;
44955;SDS011;30686;52.512;-1.188;2023-01-04T06:46:42;5.65;;;0.70;;
44955;SDS011;30686;52.512;-1.188;2023-01-04T06:49:08;2.38;;;0.90;;
44955;SDS011;30686;52.512;-1.188;2023-01-04T06:51:38;1.30;;;0.60;;
44955;SDS011;30686;52.512;-1.188;2023-01-04T06:54:05;0.95;;;0.63;;
44955;SDS011;30686;52.512;-1.188;2023-01-04T06:56:33;1.65;;;1.23;;
44955;SDS011;30686;52.512;-1.188;2023-01-04T06:58:59;0.85;;;0.57;;
44955;SDS011;30686;52.512;-1.188;2023-01-04T07:01:26;1.90;;;0.82;;
44955;SDS011;30686;52.512;-1.188;2023-01-04T07:03:52;1.80;;;0.70;;
44955;SDS011;30686;52.512;-1.188;2023-01-04T07:06:18;2.10;;;0.77;;
44955;SDS011;30686;52.512;-1.188;2023-01-04T07:08:58;2.17;;;0.70;;
44955;SDS011;30686;52.512;-1.188;2023-01-04T07:11:28;5.40;;;1.35;;
44955;SDS011;30686;52.512;-1.188;2023-01-04T07:13:56;1.40;;;0.82;;
44955;SDS011;30686;52.512;-1.188;2023-01-04T07:16:22;4.32;;;1.10;;
44955;SDS011;30686;52.512;-1.188;2023-01-04T07:18:48;4.13;;;1.05;;
44955;SDS011;30686;52.512;-1.188;2023-01-04T07:21:15;2.85;;;1.00;;
44955;SDS011;30686;52.512;-1.188;2023-01-04T07:23:41;5.55;;;1.23;;
44955;SDS011;30686;52.512;-1.188;2023-01-04T07:26:08;5.43;;;1.00;;
44955;SDS011;30686;52.512;-1.188;2023-01-04T07:28:37;3.13;;;1.10;;
44955;SDS011;30686;52.512;-1.188;2023-01-04T07:31:21;2.50;;;1.08;;
44955;SDS011;30686;52.512;-1.188;2023-01-04T07:33:48;4.47;;;1.10;;
44955;SDS011;30686;52.512;-1.188;2023-01-04T07:36:18;1.73;;;1.10;;
44955;SDS011;30686;52.512;-1.188;2023-01-04T07:38:47;3.10;;;1.00;;
44955;SDS011;30686;52.512;-1.188;2023-01-04T07:41:13;2.88;;;1.77;;
44955;SDS011;30686;52.512;-1.188;2023-01-04T07:43:39;5.20;;;1.42;;
44955;SDS011;30686;52.512;-1.188;2023-01-04T07:46:08;2.40;;;1.10;;
44955;SDS011;30686;52.512;-1.188;2023-01-04T07:48:34;4.55;;;1.20;;
44955;SDS011;30686;52.512;-1.188;2023-01-04T07:51:00;7.55;;;1.40;;
44955;SDS011;30686;52.512;-1.188;2023-01-04T07:53:26;4.05;;;1.60;;
44955;SDS011;30686;52.512;-1.188;2023-01-04T07:55:56;4.20;;;1.10;;
44955;SDS011;30686;52.512;-1.188;2023-01-04T07:58:23;8.85;;;2.13;;
44955;SDS011;30686;52.512;-1.188;2023-01-04T08:00:49;7.63;;;1.67;;
44955;SDS011;30686;52.512;-1.188;2023-01-04T08:03:15;6.35;;;1.48;;
44955;SDS011;30686;52.512;-1.188;2023-01-04T08:05:42;7.75;;;1.15;;
44955;SDS011;30686;52.512;-1.188;2023-01-04T08:08:08;6.60;;;1.85;;
44955;SDS011;30686;52.512;-1.188;2023-01-04T08:10:34;6.25;;;1.27;;
44955;SDS011;30686;52.512;-1.188;2023-01-04T08:13:00;10.70;;;2.05;;
44955;SDS011;30686;52.512;-1.188;2023-01-04T08:15:27;6.03;;;1.83;;
44955;SDS011;30686;52.512;-1.188;2023-01-04T08:17:54;5.70;;;1.63;;
44955;SDS011;30686;52.512;-1.188;2023-01-04T08:20:20;5.28;;;2.00;;
44955;SDS011;30686;52.512;-1.188;2023-01-04T08:22:47;2.92;;;1.10;;
44955;SDS011;30686;52.512;-1.188;2023-01-04T08:25:13;6.68;;;1.83;;
44955;SDS011;30686;52.512;-1.188;2023-01-04T08:27:39;3.80;;;1.38;;
44955;SDS011;30686;52.512;-1.188;2023-01-04T08:30:06;8.48;;;1.77;;
44955;SDS011;30686;52.512;-1.188;2023-01-04T08:32:32;7.82;;;1.30;;
44955;SDS011;30686;52.512;-1.188;2023-01-04T08:35:01;7.43;;;1.65;;
44955;SDS011;30686;52.512;-1.188;2023-01-04T08:37:27;9.25;;;1.95;;
44955;SDS011;30686;52.512;-1.188;2023-01-04T08:39:56;6.75;;;1.77;;
44955;SDS011;30686;52.512;-1.188;2023-01-04T08:42:22;4.82;;;1.90;;
44955;SDS011;30686;52.512;-1.188;2023-01-04T08:44:49;12.13;;;2.83;;
44955;SDS011;30686;52.512;-1.188;2023-01-04T08:47:15;18.85;;;2.85;;
44955;SDS011;30686;52.512;-1.188;2023-01-04T08:49:42;10.15;;;2.58;;
44955;SDS011;30686;52.512;-1.188;2023-01-04T08:52:08;7.57;;;1.85;;
44955;SDS011;30686;52.512;-1.188;2023-01-04T08:54:35;14.05;;;1.95;;
44955;SDS011;30686;52.512;-1.188;2023-01-04T08:57:02;5.78;;;2.10;;
44955;SDS011;30686;52.512;-1.188;2023-01-04T08:59:28;5.07;;;1.67;;
44955;SDS011;30686;52.512;-1.188;2023-01-04T09:01:54;11.82;;;3.15;;
44955;SDS011;30686;52.512;-1.188;2023-01-04T09:04:20;7.00;;;2.63;;
44955;SDS011;30686;52.512;-1.188;2023-01-04T09:06:47;11.70;;;2.42;;
44955;SDS011;30686;52.512;-1.188;2023-01-04T09:09:13;13.80;;;2.22;;
44955;SDS011;30686;52.512;-1.188;2023-01-04T09:11:40;6.43;;;2.20;;
44955;SDS011;30686;52.512;-1.188;2023-01-04T09:14:06;6.97;;;2.10;;
44955;SDS011;30686;52.512;-1.188;2023-01-04T09:16:33;14.90;;;2.10;;
44955;SDS011;30686;52.512;-1.188;2023-01-04T09:18:59;14.95;;;2.67;;
44955;SDS011;30686;52.512;-1.188;2023-01-04T09:21:25;12.23;;;2.20;;
44955;SDS011;30686;52.512;-1.188;2023-01-04T09:23:51;12.35;;;2.00;;
44955;SDS011;30686;52.512;-1.188;2023-01-04T09:26:19;14.90;;;2.95;;
44955;SDS011;30686;52.512;-1.188;2023-01-04T09:28:46;18.20;;;2.40;;
44955;SDS011;30686;52.512;-1.188;2023-01-04T09:31:14;12.68;;;2.92;;
44955;SDS011;30686;52.512;-1.188;2023-01-04T09:33:41;9.18;;;2.67;;
44955;SDS011;30686;52.512;-1.188;2023-01-04T09:36:11;18.17;;;3.25;;
44955;SDS011;30686;52.512;-1.188;2023-01-04T09:38:38;7.88;;;2.13;;
44955;SDS011;30686;52.512;-1.188;2023-01-04T09:43:47;17.65;;;2.78;;
44955;SDS011;30686;52.512;-1.188;2023-01-04T09:46:25;10.02;;;2.67;;
44955;SDS011;30686;52.512;-1.188;2023-01-04T09:49:13;14.88;;;2.65;;
44955;SDS011;30686;52.512;-1.188;2023-01-04T09:51:47;13.15;;;2.70;;
44955;SDS011;30686;52.512;-1.188;2023-01-04T09:54:17;8.65;;;2.17;;
44955;SDS011;30686;52.512;-1.188;2023-01-04T09:56:48;15.45;;;2.35;;
44955;SDS011;30686;52.512;-1.188;2023-01-04T09:59:14;15.35;;;4.10;;
44955;SDS011;30686;52.512;-1.188;2023-01-04T10:01:48;19.48;;;2.83;;
44955;SDS011;30686;52.512;-1.188;2023-01-04T10:04:18;16.08;;;2.78;;
44955;SDS011;30686;52.512;-1.188;2023-01-04T10:06:48;9.75;;;2.28;;
44955;SDS011;30686;52.512;-1.188;2023-01-04T10:09:17;14.52;;;2.85;;
44955;SDS011;30686;52.512;-1.188;2023-01-04T10:11:46;15.02;;;2.80;;
44955;SDS011;30686;52.512;-1.188;2023-01-04T10:14:21;14.18;;;3.40;;
44955;SDS011;30686;52.512;-1.188;2023-01-04T10:22:09;11.77;;;3.17;;
44955;SDS011;30686;52.512;-1.188;2023-01-04T10:34:55;9.25;;;1.85;;
44955;SDS011;30686;52.512;-1.188;2023-01-04T10:37:32;11.68;;;2.75;;
44955;SDS011;30686;52.512;-1.188;2023-01-04T10:39:59;17.20;;;2.58;;
44955;SDS011;30686;52.512;-1.188;2023-01-04T10:45:20;20.60;;;2.67;;
44955;SDS011;30686;52.512;-1.188;2023-01-04T10:50:25;16.17;;;3.63;;
44955;SDS011;30686;52.512;-1.188;2023-01-04T10:53:03;19.17;;;3.15;;
44955;SDS011;30686;52.512;-1.188;2023-01-04T10:55:51;17.85;;;3.33;;
44955;SDS011;30686;52.512;-1.188;2023-01-04T10:58:28;9.27;;;2.13;;
44955;SDS011;30686;52.512;-1.188;2023-01-04T11:01:01;14.63;;;3.55;;
44955;SDS011;30686;52.512;-1.188;2023-01-04T11:03:34;11.93;;;2.70;;
44955;SDS011;30686;52.512;-1.188;2023-01-04T11:08:45;7.60;;;2.35;;
44955;SDS011;30686;52.512;-1.188;2023-01-04T11:11:21;14.52;;;2.50;;
44955;SDS011;30686;52.512;-1.188;2023-01-04T11:13:47;21.45;;;3.03;;
44955;SDS011;30686;52.512;-1.188;2023-01-04T11:16:15;12.20;;;2.88;;
44955;SDS011;30686;52.512;-1.188;2023-01-04T11:18:41;13.85;;;2.38;;
44955;SDS011;30686;52.512;-1.188;2023-01-04T11:21:10;8.82;;;1.90;;
44955;SDS011;30686;52.512;-1.188;2023-01-04T11:23:37;10.98;;;2.40;;
44955;SDS011;30686;52.512;-1.188;2023-01-04T11:26:37;13.02;;;2.42;;
44955;SDS011;30686;52.512;-1.188;2023-01-04T11:28:57;14.95;;;2.15;;
44955;SDS011;30686;52.512;-1.188;2023-01-04T11:31:45;10.27;;;1.80;;
44955;SDS011;30686;52.512;-1.188;2023-01-04T11:34:16;6.20;;;1.38;;
44955;SDS011;30686;52.512;-1.188;2023-01-04T11:36:53;10.77;;;1.77;;
44955;SDS011;30686;52.512;-1.188;2023-01-04T11:39:25;7.40;;;1.52;;
44955;SDS011;30686;52.512;-1.188;2023-01-04T11:44:21;7.40;;;1.58;;
44955;SDS011;30686;52.512;-1.188;2023-01-04T11:47:03;13.55;;;2.42;;
44955;SDS011;30686;52.512;-1.188;2023-01-04T11:49:34;5.75;;;1.90;;
44955;SDS011;30686;52.512;-1.188;2023-01-04T11:52:02;4.63;;;1.63;;
44955;SDS011;30686;52.512;-1.188;2023-01-04T11:54:29;6.20;;;2.10;;
44955;SDS011;30686;52.512;-1.188;2023-01-04T11:57:05;8.10;;;1.95;;
44955;SDS011;30686;52.512;-1.188;2023-01-04T11:59:34;16.33;;;2.60;;
44955;SDS011;30686;52.512;-1.188;2023-01-04T12:04:52;12.30;;;2.45;;
44955;SDS011;30686;52.512;-1.188;2023-01-04T12:07:29;7.15;;;2.97;;
44955;SDS011;30686;52.512;-1.188;2023-01-04T12:10:00;8.02;;;2.28;;
44955;SDS011;30686;52.512;-1.188;2023-01-04T12:12:28;19.42;;;2.65;;
44955;SDS011;30686;52.512;-1.188;2023-01-04T12:14:54;13.88;;;2.55;;
44955;SDS011;30686;52.512;-1.188;2023-01-04T12:17:25;9.02;;;2.40;;
44955;SDS011;30686;52.512;-1.188;2023-01-04T12:19:54;11.63;;;2.95;;
44955;SDS011;30686;52.512;-1.188;2023-01-04T12:22:32;17.52;;;2.47;;
44955;SDS011;30686;52.512;-1.188;2023-01-04T12:25:00;17.17;;;3.08;;
44955;SDS011;30686;52.512;-1.188;2023-01-04T12:27:27;13.57;;;2.40;;
44955;SDS011;30686;52.512;-1.188;2023-01-04T12:29:55;6.78;;;1.85;;
44955;SDS011;30686;52.512;-1.188;2023-01-04T12:34:48;7.13;;;2.88;;
44955;SDS011;30686;52.512;-1.188;2023-01-04T12:40:01;9.85;;;2.05;;
44955;SDS011;30686;52.512;-1.188;2023-01-04T12:42:27;2.20;;;1.15;;
44955;SDS011;30686;52.512;-1.188;2023-01-04T12:50:26;7.35;;;1.73;;
44955;SDS011;30686;52.512;-1.188;2023-01-04T12:53:02;9.93;;;2.50;;
44955;SDS011;30686;52.512;-1.188;2023-01-04T12:58:00;9.32;;;2.65;;
44955;SDS011;30686;52.512;-1.188;2023-01-04T13:08:18;8.57;;;1.90;;
44955;SDS011;30686;52.512;-1.188;2023-01-04T13:13:19;6.63;;;2.40;;
44955;SDS011;30686;52.512;-1.188;2023-01-04T13:18:35;13.52;;;2.97;;
44955;SDS011;30686;52.512;-1.188;2023-01-04T13:21:47;14.55;;;2.20;;
44955;SDS011;30686;52.512;-1.188;2023-01-04T13:23:53;8.98;;;2.30;;
44955;SDS011;30686;52.512;-1.188;2023-01-04T13:29:15;13.13;;;2.33;;
44955;SDS011;30686;52.512;-1.188;2023-01-04T13:31:49;10.25;;;2.95;;
44955;SDS011;30686;52.512;-1.188;2023-01-04T13:37:03;8.13;;;1.77;;
44955;SDS011;30686;52.512;-1.188;2023-01-04T13:39:33;8.70;;;1.88;;
44955;SDS011;30686;52.512;-1.188;2023-01-04T13:41:59;8.35;;;2.60;;
44955;SDS011;30686;52.512;-1.188;2023-01-04T13:44:46;16.33;;;2.50;;
44955;SDS011;30686;52.512;-1.188;2023-01-04T13:47:17;12.57;;;2.15;;
44955;SDS011;30686;52.512;-1.188;2023-01-04T13:49:43;10.90;;;3.25;;
44955;SDS011;30686;52.512;-1.188;2023-01-04T13:52:18;8.35;;;2.13;;
44955;SDS011;30686;52.512;-1.188;2023-01-04T13:54:45;7.28;;;2.35;;
44955;SDS011;30686;52.512;-1.188;2023-01-04T13:57:14;13.35;;;2.88;;
44955;SDS011;30686;52.512;-1.188;2023-01-04T13:59:45;9.32;;;1.95;;
44955;SDS011;30686;52.512;-1.188;2023-01-04T14:02:17;11.88;;;2.38;;
44955;SDS011;30686;52.512;-1.188;2023-01-04T14:04:44;10.82;;;2.10;;
44955;SDS011;30686;52.512;-1.188;2023-01-04T14:07:11;14.38;;;2.30;;
44955;SDS011;30686;52.512;-1.188;2023-01-04T14:09:44;16.00;;;3.42;;
44955;SDS011;30686;52.512;-1.188;2023-01-04T14:12:12;11.35;;;2.42;;
44955;SDS011;30686;52.512;-1.188;2023-01-04T14:19:59;6.55;;;1.98;;
44955;SDS011;30686;52.512;-1.188;2023-01-04T14:22:36;10.07;;;2.28;;
44955;SDS011;30686;52.512;-1.188;2023-01-04T14:27:48;10.88;;;2.25;;
44955;SDS011;30686;52.512;-1.188;2023-01-04T14:32:58;8.93;;;2.95;;
44955;SDS011;30686;52.512;-1.188;2023-01-04T14:35:26;11.23;;;2.65;;
44955;SDS011;30686;52.512;-1.188;2023-01-04T14:37:52;11.38;;;2.80;;
44955;SDS011;30686;52.512;-1.188;2023-01-04T14:40:26;10.20;;;2.38;;
44955;SDS011;30686;52.512;-1.188;2023-01-04T14:42:53;11.30;;;2.92;;
44955;SDS011;30686;52.512;-1.188;2023-01-04T14:45:19;8.65;;;2.83;;
44955;SDS011;30686;52.512;-1.188;2023-01-04T14:47:46;19.45;;;2.25;;
44955;SDS011;30686;52.512;-1.188;2023-01-04T14:50:12;13.77;;;2.25;;
44955;SDS011;30686;52.512;-1.188;2023-01-04T14:52:39;16.45;;;2.35;;
44955;SDS011;30686;52.512;-1.188;2023-01-04T14:55:09;13.98;;;2.58;;
44955;SDS011;30686;52.512;-1.188;2023-01-04T14:57:37;19.20;;;3.08;;
44955;SDS011;30686;52.512;-1.188;2023-01-04T15:00:08;19.40;;;3.05;;
44955;SDS011;30686;52.512;-1.188;2023-01-04T15:02:37;13.38;;;3.17;;
44955;SDS011;30686;52.512;-1.188;2023-01-04T15:05:03;7.72;;;1.85;;
44955;SDS011;30686;52.512;-1.188;2023-01-04T15:07:31;9.95;;;2.03;;
44955;SDS011;30686;52.512;-1.188;2023-01-04T15:09:59;16.90;;;3.03;;
44955;SDS011;30686;52.512;-1.188;2023-01-04T15:12:26;15.77;;;2.47;;
44955;SDS011;30686;52.512;-1.188;2023-01-04T15:14:52;10.90;;;3.13;;
44955;SDS011;30686;52.512;-1.188;2023-01-04T15:17:19;17.88;;;3.53;;
44955;SDS011;30686;52.512;-1.188;2023-01-04T15:19:45;18.42;;;2.80;;
44955;SDS011;30686;52.512;-1.188;2023-01-04T15:22:11;17.95;;;2.88;;
44955;SDS011;30686;52.512;-1.188;2023-01-04T15:24:37;20.00;;;3.35;;
44955;SDS011;30686;52.512;-1.188;2023-01-04T15:27:04;16.67;;;3.90;;
44955;SDS011;30686;52.512;-1.188;2023-01-04T15:29:30;13.13;;;2.40;;
44955;SDS011;30686;52.512;-1.188;2023-01-04T15:31:56;12.50;;;3.28;;
44955;SDS011;30686;52.512;-1.188;2023-01-04T15:34:22;13.85;;;2.83;;
44955;SDS011;30686;52.512;-1.188;2023-01-04T15:36:52;17.85;;;2.95;;
44955;SDS011;30686;52.512;-1.188;2023-01-04T15:39:18;12.05;;;3.42;;
44955;SDS011;30686;52.512;-1.188;2023-01-04T15:41:44;6.45;;;2.47;;
44955;SDS011;30686;52.512;-1.188;2023-01-04T15:44:29;11.70;;;2.72;;
44955;SDS011;30686;52.512;-1.188;2023-01-04T15:46:58;6.93;;;1.85;;
44955;SDS011;30686;52.512;-1.188;2023-01-04T15:49:24;9.98;;;2.85;;
44955;SDS011;30686;52.512;-1.188;2023-01-04T15:51:51;9.25;;;3.17;;
44955;SDS011;30686;52.512;-1.188;2023-01-04T15:54:18;12.95;;;3.65;;
44955;SDS011;30686;52.512;-1.188;2023-01-04T15:56:45;13.43;;;3.00;;
44955;SDS011;30686;52.512;-1.188;2023-01-04T15:59:12;16.70;;;3.25;;
44955;SDS011;30686;52.512;-1.188;2023-01-04T16:01:38;10.68;;;2.00;;
44955;SDS011;30686;52.512;-1.188;2023-01-04T16:04:04;8.68;;;1.85;;
44955;SDS011;30686;52.512;-1.188;2023-01-04T16:06:32;8.40;;;2.05;;
44955;SDS011;30686;52.512;-1.188;2023-01-04T16:08:59;7.93;;;2.35;;
44955;SDS011;30686;52.512;-1.188;2023-01-04T16:11:26;8.20;;;2.00;;
44955;SDS011;30686;52.512;-1.188;2023-01-04T16:13:54;15.32;;;2.65;;
44955;SDS011;30686;52.512;-1.188;2023-01-04T16:16:21;11.30;;;1.67;;
44955;SDS011;30686;52.512;-1.188;2023-01-04T16:18:49;15.20;;;2.97;;
44955;SDS011;30686;52.512;-1.188;2023-01-04T16:21:17;11.82;;;3.42;;
44955;SDS011;30686;52.512;-1.188;2023-01-04T16:23:49;15.73;;;2.55;;
44955;SDS011;30686;52.512;-1.188;2023-01-04T16:26:15;11.93;;;2.22;;
44955;SDS011;30686;52.512;-1.188;2023-01-04T16:28:42;14.10;;;3.58;;
44955;SDS011;30686;52.512;-1.188;2023-01-04T16:31:08;8.20;;;1.98;;
44955;SDS011;30686;52.512;-1.188;2023-01-04T16:33:34;7.40;;;1.42;;
44955;SDS011;30686;52.512;-1.188;2023-01-04T16:36:05;11.30;;;2.25;;
44955;SDS011;30686;52.512;-1.188;2023-01-04T16:38:38;17.65;;;2.13;;
44955;SDS011;30686;52.512;-1.188;2023-01-04T16:41:05;15.60;;;2.92;;
44955;SDS011;30686;52.512;-1.188;2023-01-04T16:43:32;7.28;;;1.40;;